sensor_id;sensor_type;location;lat;lon;timestamp;P1;durP1;ratioP1;P2;durP2;ratioP2
35907;SDS011;22003;50.320;8.054;2023-11-21T00:01:58;15.60;;;7.65;;
35907;SDS011;22003;50.320;8.054;2023-11-21T00:04:24;15.52;;;7.45;;
35907;SDS011;22003;50.320;8.054;2023-11-21T00:06:50;14.13;;;6.95;;
35907;SDS011;22003;50.320;8.054;2023-11-21T00:09:17;18.73;;;8.18;;
35907;SDS011;22003;50.320;8.054;2023-11-21T00:11:44;17.15;;;8.15;;
35907;SDS011;22003;50.320;8.054;2023-11-21T00:14:10;17.25;;;8.40;;
35907;SDS011;22003;50.320;8.054;2023-11-21T00:16:36;22.13;;;8.35;;
35907;SDS011;22003;50.320;8.054;2023-11-21T00:19:01;16.73;;;7.97;;
35907;SDS011;22003;50.320;8.054;2023-11-21T00:21:27;17.70;;;8.10;;
35907;SDS011;22003;50.320;8.054;2023-11-21T00:23:52;22.02;;;10.32;;
35907;SDS011;22003;50.320;8.054;2023-11-21T00:26:17;21.15;;;8.93;;
35907;SDS011;22003;50.320;8.054;2023-11-21T00:28:42;23.10;;;8.27;;
35907;SDS011;22003;50.320;8.054;2023-11-21T00:31:08;20.83;;;9.07;;
35907;SDS011;22003;50.320;8.054;2023-11-21T00:33:33;18.23;;;7.95;;
35907;SDS011;22003;50.320;8.054;2023-11-21T00:35:58;16.40;;;8.38;;
35907;SDS011;22003;50.320;8.054;2023-11-21T00:38:24;20.00;;;10.00;;
35907;SDS011;22003;50.320;8.054;2023-11-21T00:40:49;26.65;;;11.05;;
35907;SDS011;22003;50.320;8.054;2023-11-21T00:43:14;30.20;;;11.75;;
35907;SDS011;22003;50.320;8.054;2023-11-21T00:45:40;26.63;;;12.00;;
35907;SDS011;22003;50.320;8.054;2023-11-21T00:48:05;26.90;;;10.90;;
35907;SDS011;22003;50.320;8.054;2023-11-21T00:50:30;22.75;;;10.63;;
35907;SDS011;22003;50.320;8.054;2023-11-21T00:52:56;22.30;;;10.10;;
35907;SDS011;22003;50.320;8.054;2023-11-21T00:55:21;45.95;;;15.15;;
35907;SDS011;22003;50.320;8.054;2023-11-21T00:57:47;67.88;;;17.92;;
35907;SDS011;22003;50.320;8.054;2023-11-21T01:00:12;100.93;;;18.58;;
35907;SDS011;22003;50.320;8.054;2023-11-21T01:02:43;27.73;;;12.95;;
35907;SDS011;22003;50.320;8.054;2023-11-21T01:05:13;32.33;;;13.48;;
35907;SDS011;22003;50.320;8.054;2023-11-21T01:07:38;28.20;;;12.80;;
35907;SDS011;22003;50.320;8.054;2023-11-21T01:10:04;30.60;;;12.75;;
35907;SDS011;22003;50.320;8.054;2023-11-21T01:12:33;29.90;;;13.05;;
35907;SDS011;22003;50.320;8.054;2023-11-21T01:15:03;26.10;;;12.30;;
35907;SDS011;22003;50.320;8.054;2023-11-21T01:17:32;22.75;;;11.27;;
35907;SDS011;22003;50.320;8.054;2023-11-21T01:19:59;33.90;;;16.80;;
35907;SDS011;22003;50.320;8.054;2023-11-21T01:22:25;30.90;;;16.27;;
35907;SDS011;22003;50.320;8.054;2023-11-21T01:24:54;28.05;;;13.52;;
35907;SDS011;22003;50.320;8.054;2023-11-21T01:27:19;27.30;;;12.25;;
35907;SDS011;22003;50.320;8.054;2023-11-21T01:29:45;27.95;;;12.88;;
35907;SDS011;22003;50.320;8.054;2023-11-21T01:32:10;25.55;;;14.63;;
35907;SDS011;22003;50.320;8.054;2023-11-21T01:34:36;24.55;;;12.60;;
35907;SDS011;22003;50.320;8.054;2023-11-21T01:37:01;32.60;;;15.13;;
35907;SDS011;22003;50.320;8.054;2023-11-21T01:39:29;26.60;;;13.65;;
35907;SDS011;22003;50.320;8.054;2023-11-21T01:41:55;23.00;;;12.77;;
35907;SDS011;22003;50.320;8.054;2023-11-21T01:44:20;25.83;;;14.32;;
35907;SDS011;22003;50.320;8.054;2023-11-21T01:46:45;27.60;;;13.80;;
35907;SDS011;22003;50.320;8.054;2023-11-21T01:49:12;27.10;;;13.93;;
35907;SDS011;22003;50.320;8.054;2023-11-21T01:51:38;28.83;;;14.88;;
35907;SDS011;22003;50.320;8.054;2023-11-21T01:54:05;24.75;;;14.68;;
35907;SDS011;22003;50.320;8.054;2023-11-21T01:56:31;29.67;;;13.77;;
35907;SDS011;22003;50.320;8.054;2023-11-21T01:58:57;26.92;;;13.98;;
35907;SDS011;22003;50.320;8.054;2023-11-21T02:01:22;31.00;;;14.43;;
35907;SDS011;22003;50.320;8.054;2023-11-21T02:03:48;27.05;;;14.43;;
35907;SDS011;22003;50.320;8.054;2023-11-21T02:06:14;25.52;;;14.15;;
35907;SDS011;22003;50.320;8.054;2023-11-21T02:08:39;29.15;;;14.43;;
35907;SDS011;22003;50.320;8.054;2023-11-21T02:11:07;24.10;;;12.80;;
35907;SDS011;22003;50.320;8.054;2023-11-21T02:13:34;30.58;;;14.98;;
35907;SDS011;22003;50.320;8.054;2023-11-21T02:15:59;28.38;;;14.45;;
35907;SDS011;22003;50.320;8.054;2023-11-21T02:18:25;28.63;;;14.20;;
35907;SDS011;22003;50.320;8.054;2023-11-21T02:20:50;26.65;;;13.88;;
35907;SDS011;22003;50.320;8.054;2023-11-21T02:23:16;25.63;;;13.85;;
35907;SDS011;22003;50.320;8.054;2023-11-21T02:25:41;30.65;;;14.77;;
35907;SDS011;22003;50.320;8.054;2023-11-21T02:28:07;25.13;;;12.60;;
35907;SDS011;22003;50.320;8.054;2023-11-21T02:30:32;25.27;;;13.73;;
35907;SDS011;22003;50.320;8.054;2023-11-21T02:32:58;23.15;;;12.90;;
35907;SDS011;22003;50.320;8.054;2023-11-21T02:35:23;24.50;;;12.73;;
35907;SDS011;22003;50.320;8.054;2023-11-21T02:37:50;24.70;;;12.60;;
35907;SDS011;22003;50.320;8.054;2023-11-21T02:40:16;21.08;;;13.07;;
35907;SDS011;22003;50.320;8.054;2023-11-21T02:42:49;26.70;;;13.38;;
35907;SDS011;22003;50.320;8.054;2023-11-21T02:45:21;22.58;;;13.38;;
35907;SDS011;22003;50.320;8.054;2023-11-21T02:47:47;23.90;;;12.88;;
35907;SDS011;22003;50.320;8.054;2023-11-21T02:50:13;22.52;;;13.18;;
35907;SDS011;22003;50.320;8.054;2023-11-21T02:52:39;27.90;;;13.68;;
35907;SDS011;22003;50.320;8.054;2023-11-21T02:55:07;23.40;;;13.15;;
35907;SDS011;22003;50.320;8.054;2023-11-21T02:57:32;22.27;;;12.27;;
35907;SDS011;22003;50.320;8.054;2023-11-21T02:59:58;23.40;;;12.75;;
35907;SDS011;22003;50.320;8.054;2023-11-21T03:02:24;21.73;;;12.13;;
35907;SDS011;22003;50.320;8.054;2023-11-21T03:04:50;27.13;;;14.07;;
35907;SDS011;22003;50.320;8.054;2023-11-21T03:07:15;22.42;;;14.73;;
35907;SDS011;22003;50.320;8.054;2023-11-21T03:09:41;33.38;;;16.23;;
35907;SDS011;22003;50.320;8.054;2023-11-21T03:12:06;32.45;;;18.33;;
35907;SDS011;22003;50.320;8.054;2023-11-21T03:14:31;33.08;;;19.17;;
35907;SDS011;22003;50.320;8.054;2023-11-21T03:16:57;35.47;;;20.23;;
35907;SDS011;22003;50.320;8.054;2023-11-21T03:19:22;32.20;;;18.63;;
35907;SDS011;22003;50.320;8.054;2023-11-21T03:21:48;34.45;;;18.50;;
35907;SDS011;22003;50.320;8.054;2023-11-21T03:24:13;30.48;;;18.65;;
35907;SDS011;22003;50.320;8.054;2023-11-21T03:26:43;33.95;;;19.00;;
35907;SDS011;22003;50.320;8.054;2023-11-21T03:29:09;27.92;;;15.80;;
35907;SDS011;22003;50.320;8.054;2023-11-21T03:31:35;21.70;;;14.00;;
35907;SDS011;22003;50.320;8.054;2023-11-21T03:34:01;22.63;;;14.00;;
35907;SDS011;22003;50.320;8.054;2023-11-21T03:36:26;21.13;;;12.50;;
35907;SDS011;22003;50.320;8.054;2023-11-21T03:38:51;20.63;;;12.43;;
35907;SDS011;22003;50.320;8.054;2023-11-21T03:41:16;24.75;;;12.48;;
35907;SDS011;22003;50.320;8.054;2023-11-21T03:43:42;18.58;;;11.13;;
35907;SDS011;22003;50.320;8.054;2023-11-21T03:46:07;16.75;;;9.30;;
35907;SDS011;22003;50.320;8.054;2023-11-21T03:48:32;10.85;;;7.03;;
35907;SDS011;22003;50.320;8.054;2023-11-21T03:50:58;11.70;;;6.63;;
35907;SDS011;22003;50.320;8.054;2023-11-21T03:53:23;9.48;;;5.15;;
35907;SDS011;22003;50.320;8.054;2023-11-21T03:55:48;8.85;;;5.03;;
35907;SDS011;22003;50.320;8.054;2023-11-21T03:58:15;6.60;;;4.10;;
35907;SDS011;22003;50.320;8.054;2023-11-21T04:00:40;5.13;;;3.70;;
35907;SDS011;22003;50.320;8.054;2023-11-21T04:03:05;7.88;;;3.80;;
35907;SDS011;22003;50.320;8.054;2023-11-21T04:05:30;7.32;;;4.10;;
35907;SDS011;22003;50.320;8.054;2023-11-21T04:07:56;6.40;;;3.50;;
35907;SDS011;22003;50.320;8.054;2023-11-21T04:10:21;5.20;;;3.60;;
35907;SDS011;22003;50.320;8.054;2023-11-21T04:12:46;5.78;;;4.30;;
35907;SDS011;22003;50.320;8.054;2023-11-21T04:15:13;8.02;;;4.88;;
35907;SDS011;22003;50.320;8.054;2023-11-21T04:17:39;5.63;;;3.70;;
35907;SDS011;22003;50.320;8.054;2023-11-21T04:20:05;6.95;;;3.95;;
35907;SDS011;22003;50.320;8.054;2023-11-21T04:22:33;4.05;;;3.03;;
35907;SDS011;22003;50.320;8.054;2023-11-21T04:24:59;5.32;;;4.40;;
35907;SDS011;22003;50.320;8.054;2023-11-21T04:27:24;8.50;;;4.40;;
35907;SDS011;22003;50.320;8.054;2023-11-21T04:29:49;8.02;;;4.25;;
35907;SDS011;22003;50.320;8.054;2023-11-21T04:32:14;4.63;;;3.22;;
35907;SDS011;22003;50.320;8.054;2023-11-21T04:34:41;4.00;;;3.05;;
35907;SDS011;22003;50.320;8.054;2023-11-21T04:37:06;7.43;;;3.53;;
35907;SDS011;22003;50.320;8.054;2023-11-21T04:39:31;5.97;;;3.10;;
35907;SDS011;22003;50.320;8.054;2023-11-21T04:41:56;6.22;;;2.97;;
35907;SDS011;22003;50.320;8.054;2023-11-21T04:44:22;2.83;;;2.40;;
35907;SDS011;22003;50.320;8.054;2023-11-21T04:46:47;5.40;;;2.60;;
35907;SDS011;22003;50.320;8.054;2023-11-21T04:49:12;4.10;;;2.70;;
35907;SDS011;22003;50.320;8.054;2023-11-21T04:51:37;2.28;;;1.88;;
35907;SDS011;22003;50.320;8.054;2023-11-21T04:54:03;4.43;;;2.65;;
35907;SDS011;22003;50.320;8.054;2023-11-21T04:56:28;2.65;;;2.10;;
35907;SDS011;22003;50.320;8.054;2023-11-21T04:58:54;2.95;;;2.00;;
35907;SDS011;22003;50.320;8.054;2023-11-21T05:01:19;4.45;;;2.00;;
35907;SDS011;22003;50.320;8.054;2023-11-21T05:03:44;5.28;;;1.83;;
35907;SDS011;22003;50.320;8.054;2023-11-21T05:06:10;1.83;;;1.35;;
35907;SDS011;22003;50.320;8.054;2023-11-21T05:08:35;3.72;;;1.45;;
35907;SDS011;22003;50.320;8.054;2023-11-21T05:11:02;2.78;;;1.13;;
35907;SDS011;22003;50.320;8.054;2023-11-21T05:13:27;2.42;;;1.10;;
35907;SDS011;22003;50.320;8.054;2023-11-21T05:15:53;3.03;;;0.98;;
35907;SDS011;22003;50.320;8.054;2023-11-21T05:18:20;1.23;;;1.10;;
35907;SDS011;22003;50.320;8.054;2023-11-21T05:20:45;1.30;;;0.98;;
35907;SDS011;22003;50.320;8.054;2023-11-21T05:23:12;2.55;;;0.85;;
35907;SDS011;22003;50.320;8.054;2023-11-21T05:25:37;5.68;;;1.10;;
35907;SDS011;22003;50.320;8.054;2023-11-21T05:28:02;1.73;;;1.05;;
35907;SDS011;22003;50.320;8.054;2023-11-21T05:30:29;2.13;;;1.10;;
35907;SDS011;22003;50.320;8.054;2023-11-21T05:32:54;3.42;;;1.10;;
35907;SDS011;22003;50.320;8.054;2023-11-21T05:35:19;3.70;;;1.77;;
35907;SDS011;22003;50.320;8.054;2023-11-21T05:37:46;4.70;;;1.38;;
35907;SDS011;22003;50.320;8.054;2023-11-21T05:40:11;1.90;;;1.15;;
35907;SDS011;22003;50.320;8.054;2023-11-21T05:42:38;3.30;;;1.27;;
35907;SDS011;22003;50.320;8.054;2023-11-21T05:45:04;3.97;;;1.00;;
35907;SDS011;22003;50.320;8.054;2023-11-21T05:47:39;3.28;;;1.27;;
35907;SDS011;22003;50.320;8.054;2023-11-21T05:50:07;3.88;;;1.63;;
35907;SDS011;22003;50.320;8.054;2023-11-21T05:52:37;2.80;;;1.98;;
35907;SDS011;22003;50.320;8.054;2023-11-21T05:55:03;3.28;;;1.80;;
35907;SDS011;22003;50.320;8.054;2023-11-21T05:57:34;4.45;;;1.70;;
35907;SDS011;22003;50.320;8.054;2023-11-21T06:02:38;8.57;;;4.38;;
35907;SDS011;22003;50.320;8.054;2023-11-21T06:05:04;4.20;;;2.63;;
35907;SDS011;22003;50.320;8.054;2023-11-21T06:07:30;4.15;;;2.42;;
35907;SDS011;22003;50.320;8.054;2023-11-21T06:09:55;3.72;;;2.08;;
35907;SDS011;22003;50.320;8.054;2023-11-21T06:12:20;3.20;;;1.60;;
35907;SDS011;22003;50.320;8.054;2023-11-21T06:14:46;4.75;;;1.55;;
35907;SDS011;22003;50.320;8.054;2023-11-21T06:17:11;2.88;;;1.75;;
35907;SDS011;22003;50.320;8.054;2023-11-21T06:19:36;5.65;;;2.67;;
35907;SDS011;22003;50.320;8.054;2023-11-21T06:22:01;3.88;;;1.80;;
35907;SDS011;22003;50.320;8.054;2023-11-21T06:24:27;2.78;;;2.22;;
35907;SDS011;22003;50.320;8.054;2023-11-21T06:26:53;6.50;;;2.83;;
35907;SDS011;22003;50.320;8.054;2023-11-21T06:29:18;5.35;;;3.30;;
35907;SDS011;22003;50.320;8.054;2023-11-21T06:31:43;5.88;;;3.30;;
35907;SDS011;22003;50.320;8.054;2023-11-21T06:34:08;7.50;;;4.20;;
35907;SDS011;22003;50.320;8.054;2023-11-21T06:36:34;6.53;;;3.63;;
35907;SDS011;22003;50.320;8.054;2023-11-21T06:39:01;5.85;;;2.80;;
35907;SDS011;22003;50.320;8.054;2023-11-21T06:41:26;3.63;;;1.95;;
35907;SDS011;22003;50.320;8.054;2023-11-21T06:43:51;3.65;;;2.03;;
35907;SDS011;22003;50.320;8.054;2023-11-21T06:46:18;4.15;;;1.80;;
35907;SDS011;22003;50.320;8.054;2023-11-21T06:48:44;3.27;;;2.07;;
35907;SDS011;22003;50.320;8.054;2023-11-21T06:51:10;3.65;;;2.00;;
35907;SDS011;22003;50.320;8.054;2023-11-21T06:53:36;2.88;;;1.70;;
35907;SDS011;22003;50.320;8.054;2023-11-21T06:56:02;4.68;;;1.67;;
35907;SDS011;22003;50.320;8.054;2023-11-21T06:58:27;4.47;;;1.38;;
35907;SDS011;22003;50.320;8.054;2023-11-21T07:00:52;6.35;;;2.20;;
35907;SDS011;22003;50.320;8.054;2023-11-21T07:03:18;2.83;;;1.63;;
35907;SDS011;22003;50.320;8.054;2023-11-21T07:05:44;4.15;;;2.10;;
35907;SDS011;22003;50.320;8.054;2023-11-21T07:08:09;3.55;;;1.38;;
35907;SDS011;22003;50.320;8.054;2023-11-21T07:10:35;4.32;;;1.83;;
35907;SDS011;22003;50.320;8.054;2023-11-21T07:13:01;2.38;;;1.48;;
35907;SDS011;22003;50.320;8.054;2023-11-21T07:15:27;2.25;;;1.38;;
35907;SDS011;22003;50.320;8.054;2023-11-21T07:17:53;3.20;;;1.50;;
35907;SDS011;22003;50.320;8.054;2023-11-21T07:20:19;2.63;;;1.60;;
35907;SDS011;22003;50.320;8.054;2023-11-21T07:22:44;2.97;;;1.70;;
35907;SDS011;22003;50.320;8.054;2023-11-21T07:25:10;4.57;;;1.40;;
35907;SDS011;22003;50.320;8.054;2023-11-21T07:27:35;4.13;;;1.90;;
35907;SDS011;22003;50.320;8.054;2023-11-21T07:30:02;4.27;;;2.03;;
35907;SDS011;22003;50.320;8.054;2023-11-21T07:32:30;4.68;;;2.45;;
35907;SDS011;22003;50.320;8.054;2023-11-21T07:37:24;3.42;;;2.35;;
35907;SDS011;22003;50.320;8.054;2023-11-21T07:39:51;6.72;;;2.83;;
35907;SDS011;22003;50.320;8.054;2023-11-21T07:42:20;9.63;;;3.25;;
35907;SDS011;22003;50.320;8.054;2023-11-21T07:44:45;11.25;;;2.72;;
35907;SDS011;22003;50.320;8.054;2023-11-21T07:47:11;5.22;;;2.92;;
35907;SDS011;22003;50.320;8.054;2023-11-21T07:49:36;5.63;;;2.88;;
35907;SDS011;22003;50.320;8.054;2023-11-21T07:52:02;9.00;;;3.33;;
35907;SDS011;22003;50.320;8.054;2023-11-21T07:54:27;6.78;;;3.17;;
35907;SDS011;22003;50.320;8.054;2023-11-21T07:56:52;4.03;;;2.90;;
35907;SDS011;22003;50.320;8.054;2023-11-21T07:59:18;10.27;;;3.40;;
35907;SDS011;22003;50.320;8.054;2023-11-21T08:01:43;7.32;;;2.97;;
35907;SDS011;22003;50.320;8.054;2023-11-21T08:04:10;6.93;;;3.15;;
35907;SDS011;22003;50.320;8.054;2023-11-21T08:06:35;7.97;;;3.10;;
35907;SDS011;22003;50.320;8.054;2023-11-21T08:09:01;8.02;;;3.33;;
35907;SDS011;22003;50.320;8.054;2023-11-21T08:11:26;8.13;;;3.35;;
35907;SDS011;22003;50.320;8.054;2023-11-21T08:16:19;6.75;;;3.60;;
35907;SDS011;22003;50.320;8.054;2023-11-21T08:18:45;7.72;;;3.55;;
35907;SDS011;22003;50.320;8.054;2023-11-21T08:21:12;8.02;;;3.80;;
35907;SDS011;22003;50.320;8.054;2023-11-21T08:23:38;7.70;;;3.72;;
35907;SDS011;22003;50.320;8.054;2023-11-21T08:26:04;6.30;;;4.07;;
35907;SDS011;22003;50.320;8.054;2023-11-21T08:28:30;12.73;;;4.65;;
35907;SDS011;22003;50.320;8.054;2023-11-21T08:30:55;7.90;;;4.10;;
35907;SDS011;22003;50.320;8.054;2023-11-21T08:33:20;7.28;;;3.55;;
35907;SDS011;22003;50.320;8.054;2023-11-21T08:35:46;9.38;;;4.20;;
35907;SDS011;22003;50.320;8.054;2023-11-21T08:38:11;6.68;;;3.67;;
35907;SDS011;22003;50.320;8.054;2023-11-21T08:40:37;11.02;;;4.50;;
35907;SDS011;22003;50.320;8.054;2023-11-21T08:43:03;8.82;;;3.42;;
35907;SDS011;22003;50.320;8.054;2023-11-21T08:45:29;7.53;;;4.03;;
35907;SDS011;22003;50.320;8.054;2023-11-21T08:47:55;5.95;;;3.53;;
35907;SDS011;22003;50.320;8.054;2023-11-21T08:50:20;8.70;;;4.47;;
35907;SDS011;22003;50.320;8.054;2023-11-21T08:52:46;6.63;;;3.78;;
35907;SDS011;22003;50.320;8.054;2023-11-21T08:55:11;13.38;;;3.47;;
35907;SDS011;22003;50.320;8.054;2023-11-21T08:57:37;7.25;;;4.40;;
35907;SDS011;22003;50.320;8.054;2023-11-21T09:00:04;7.90;;;2.80;;
35907;SDS011;22003;50.320;8.054;2023-11-21T09:02:36;8.38;;;4.00;;
35907;SDS011;22003;50.320;8.054;2023-11-21T09:05:02;5.10;;;3.15;;
35907;SDS011;22003;50.320;8.054;2023-11-21T09:07:29;8.73;;;3.58;;
35907;SDS011;22003;50.320;8.054;2023-11-21T09:09:54;9.93;;;4.25;;
35907;SDS011;22003;50.320;8.054;2023-11-21T09:12:20;11.50;;;4.95;;
35907;SDS011;22003;50.320;8.054;2023-11-21T09:14:45;8.65;;;4.22;;
35907;SDS011;22003;50.320;8.054;2023-11-21T09:17:11;8.48;;;3.70;;
35907;SDS011;22003;50.320;8.054;2023-11-21T09:19:37;8.95;;;4.97;;
35907;SDS011;22003;50.320;8.054;2023-11-21T09:22:03;6.50;;;4.10;;
35907;SDS011;22003;50.320;8.054;2023-11-21T09:24:29;9.82;;;4.75;;
35907;SDS011;22003;50.320;8.054;2023-11-21T09:26:55;7.85;;;4.80;;
35907;SDS011;22003;50.320;8.054;2023-11-21T09:29:20;14.15;;;8.90;;
35907;SDS011;22003;50.320;8.054;2023-11-21T09:31:47;9.45;;;3.90;;
35907;SDS011;22003;50.320;8.054;2023-11-21T09:34:12;10.10;;;4.43;;
35907;SDS011;22003;50.320;8.054;2023-11-21T09:36:38;8.13;;;3.75;;
35907;SDS011;22003;50.320;8.054;2023-11-21T09:39:04;6.65;;;4.43;;
35907;SDS011;22003;50.320;8.054;2023-11-21T09:41:43;9.10;;;4.50;;
35907;SDS011;22003;50.320;8.054;2023-11-21T09:44:13;9.75;;;4.07;;
35907;SDS011;22003;50.320;8.054;2023-11-21T09:46:41;8.10;;;4.32;;
35907;SDS011;22003;50.320;8.054;2023-11-21T09:49:08;6.43;;;3.70;;
35907;SDS011;22003;50.320;8.054;2023-11-21T09:51:37;7.53;;;3.90;;
35907;SDS011;22003;50.320;8.054;2023-11-21T09:54:05;7.35;;;3.65;;
35907;SDS011;22003;50.320;8.054;2023-11-21T09:56:33;8.80;;;3.90;;
35907;SDS011;22003;50.320;8.054;2023-11-21T09:58:59;10.63;;;3.92;;
35907;SDS011;22003;50.320;8.054;2023-11-21T10:01:29;7.95;;;4.43;;
35907;SDS011;22003;50.320;8.054;2023-11-21T10:03:56;10.10;;;4.40;;
35907;SDS011;22003;50.320;8.054;2023-11-21T10:06:21;8.25;;;4.80;;
35907;SDS011;22003;50.320;8.054;2023-11-21T10:08:48;9.13;;;4.82;;
35907;SDS011;22003;50.320;8.054;2023-11-21T10:11:15;11.13;;;5.75;;
35907;SDS011;22003;50.320;8.054;2023-11-21T10:13:43;15.00;;;5.68;;
35907;SDS011;22003;50.320;8.054;2023-11-21T10:16:10;9.65;;;4.78;;
35907;SDS011;22003;50.320;8.054;2023-11-21T10:18:41;9.50;;;5.38;;
35907;SDS011;22003;50.320;8.054;2023-11-21T10:21:07;10.40;;;6.20;;
35907;SDS011;22003;50.320;8.054;2023-11-21T10:23:34;11.32;;;5.55;;
35907;SDS011;22003;50.320;8.054;2023-11-21T10:25:59;10.80;;;5.43;;
35907;SDS011;22003;50.320;8.054;2023-11-21T10:28:25;12.20;;;6.60;;
35907;SDS011;22003;50.320;8.054;2023-11-21T10:30:50;11.00;;;6.30;;
35907;SDS011;22003;50.320;8.054;2023-11-21T10:33:15;14.65;;;7.40;;
35907;SDS011;22003;50.320;8.054;2023-11-21T10:38:06;13.20;;;7.17;;
35907;SDS011;22003;50.320;8.054;2023-11-21T10:40:34;14.73;;;7.07;;
35907;SDS011;22003;50.320;8.054;2023-11-21T10:43:07;14.25;;;7.22;;
35907;SDS011;22003;50.320;8.054;2023-11-21T10:45:37;15.40;;;7.85;;
35907;SDS011;22003;50.320;8.054;2023-11-21T10:48:06;15.23;;;8.05;;
35907;SDS011;22003;50.320;8.054;2023-11-21T10:50:34;17.85;;;8.25;;
35907;SDS011;22003;50.320;8.054;2023-11-21T10:53:03;14.10;;;7.45;;
35907;SDS011;22003;50.320;8.054;2023-11-21T10:55:30;14.35;;;7.60;;
35907;SDS011;22003;50.320;8.054;2023-11-21T10:57:57;17.67;;;8.05;;
35907;SDS011;22003;50.320;8.054;2023-11-21T11:00:24;15.90;;;8.05;;
35907;SDS011;22003;50.320;8.054;2023-11-21T11:02:52;17.15;;;8.52;;
35907;SDS011;22003;50.320;8.054;2023-11-21T11:05:19;19.20;;;8.07;;
35907;SDS011;22003;50.320;8.054;2023-11-21T11:07:47;18.63;;;8.85;;
35907;SDS011;22003;50.320;8.054;2023-11-21T11:10:17;16.80;;;9.02;;
35907;SDS011;22003;50.320;8.054;2023-11-21T11:12:45;18.75;;;8.55;;
35907;SDS011;22003;50.320;8.054;2023-11-21T11:15:12;19.17;;;8.90;;
35907;SDS011;22003;50.320;8.054;2023-11-21T11:17:37;21.15;;;8.60;;
35907;SDS011;22003;50.320;8.054;2023-11-21T11:20:03;23.20;;;9.38;;
35907;SDS011;22003;50.320;8.054;2023-11-21T11:22:46;17.67;;;9.07;;
35907;SDS011;22003;50.320;8.054;2023-11-21T11:28:17;17.80;;;8.60;;
35907;SDS011;22003;50.320;8.054;2023-11-21T11:30:48;18.15;;;8.35;;
35907;SDS011;22003;50.320;8.054;2023-11-21T11:33:42;22.58;;;10.68;;
35907;SDS011;22003;50.320;8.054;2023-11-21T11:36:20;17.73;;;9.45;;
35907;SDS011;22003;50.320;8.054;2023-11-21T11:38:50;22.55;;;9.65;;
35907;SDS011;22003;50.320;8.054;2023-11-21T11:41:25;23.10;;;10.05;;
35907;SDS011;22003;50.320;8.054;2023-11-21T11:43:52;16.83;;;8.73;;
35907;SDS011;22003;50.320;8.054;2023-11-21T11:46:18;16.45;;;9.52;;
35907;SDS011;22003;50.320;8.054;2023-11-21T11:48:46;22.10;;;9.25;;
35907;SDS011;22003;50.320;8.054;2023-11-21T11:51:13;20.08;;;9.98;;
35907;SDS011;22003;50.320;8.054;2023-11-21T11:53:42;16.58;;;8.63;;
35907;SDS011;22003;50.320;8.054;2023-11-21T11:58:53;22.42;;;8.55;;
35907;SDS011;22003;50.320;8.054;2023-11-21T12:01:20;16.65;;;8.45;;
35907;SDS011;22003;50.320;8.054;2023-11-21T12:06:40;16.65;;;7.68;;
35907;SDS011;22003;50.320;8.054;2023-11-21T12:09:06;13.95;;;7.88;;
35907;SDS011;22003;50.320;8.054;2023-11-21T12:11:32;15.18;;;7.25;;
35907;SDS011;22003;50.320;8.054;2023-11-21T12:13:58;14.32;;;7.38;;
35907;SDS011;22003;50.320;8.054;2023-11-21T12:16:25;20.35;;;7.50;;
35907;SDS011;22003;50.320;8.054;2023-11-21T12:18:52;14.38;;;7.95;;
35907;SDS011;22003;50.320;8.054;2023-11-21T12:21:19;16.67;;;8.48;;
35907;SDS011;22003;50.320;8.054;2023-11-21T12:23:45;13.63;;;7.57;;
35907;SDS011;22003;50.320;8.054;2023-11-21T12:26:12;19.67;;;8.02;;
35907;SDS011;22003;50.320;8.054;2023-11-21T12:28:38;16.40;;;8.07;;
35907;SDS011;22003;50.320;8.054;2023-11-21T12:31:03;17.08;;;6.95;;
35907;SDS011;22003;50.320;8.054;2023-11-21T12:33:31;13.30;;;6.68;;
35907;SDS011;22003;50.320;8.054;2023-11-21T12:35:57;12.70;;;6.80;;
35907;SDS011;22003;50.320;8.054;2023-11-21T12:38:23;15.70;;;6.40;;
35907;SDS011;22003;50.320;8.054;2023-11-21T12:40:49;15.52;;;6.18;;
35907;SDS011;22003;50.320;8.054;2023-11-21T12:43:15;12.73;;;5.28;;
35907;SDS011;22003;50.320;8.054;2023-11-21T12:45:42;10.57;;;5.70;;
35907;SDS011;22003;50.320;8.054;2023-11-21T12:48:08;12.63;;;5.82;;
35907;SDS011;22003;50.320;8.054;2023-11-21T12:50:36;9.55;;;4.78;;
35907;SDS011;22003;50.320;8.054;2023-11-21T12:53:04;10.77;;;5.45;;
35907;SDS011;22003;50.320;8.054;2023-11-21T12:55:34;11.77;;;5.43;;
35907;SDS011;22003;50.320;8.054;2023-11-21T12:58:03;10.88;;;5.38;;
35907;SDS011;22003;50.320;8.054;2023-11-21T13:00:38;11.10;;;4.45;;
35907;SDS011;22003;50.320;8.054;2023-11-21T13:03:07;11.10;;;4.75;;
35907;SDS011;22003;50.320;8.054;2023-11-21T13:05:34;9.02;;;4.90;;
35907;SDS011;22003;50.320;8.054;2023-11-21T13:08:04;12.52;;;4.97;;
35907;SDS011;22003;50.320;8.054;2023-11-21T13:10:38;9.35;;;5.07;;
35907;SDS011;22003;50.320;8.054;2023-11-21T13:13:05;11.82;;;5.22;;
35907;SDS011;22003;50.320;8.054;2023-11-21T13:15:33;14.27;;;5.78;;
35907;SDS011;22003;50.320;8.054;2023-11-21T13:18:00;13.02;;;6.43;;
35907;SDS011;22003;50.320;8.054;2023-11-21T13:20:25;10.07;;;5.88;;
35907;SDS011;22003;50.320;8.054;2023-11-21T13:22:53;18.25;;;6.75;;
35907;SDS011;22003;50.320;8.054;2023-11-21T13:25:23;16.63;;;8.40;;
35907;SDS011;22003;50.320;8.054;2023-11-21T13:27:52;11.38;;;6.22;;
35907;SDS011;22003;50.320;8.054;2023-11-21T13:30:17;17.05;;;7.72;;
35907;SDS011;22003;50.320;8.054;2023-11-21T13:32:48;11.95;;;6.82;;
35907;SDS011;22003;50.320;8.054;2023-11-21T13:35:16;11.10;;;6.47;;
35907;SDS011;22003;50.320;8.054;2023-11-21T13:37:55;14.23;;;7.57;;
35907;SDS011;22003;50.320;8.054;2023-11-21T13:40:24;10.65;;;6.75;;
35907;SDS011;22003;50.320;8.054;2023-11-21T13:42:53;14.23;;;6.95;;
35907;SDS011;22003;50.320;8.054;2023-11-21T13:45:22;18.25;;;7.28;;
35907;SDS011;22003;50.320;8.054;2023-11-21T13:47:48;14.02;;;7.10;;
35907;SDS011;22003;50.320;8.054;2023-11-21T13:50:16;18.15;;;7.68;;
35907;SDS011;22003;50.320;8.054;2023-11-21T13:52:47;16.33;;;7.50;;
35907;SDS011;22003;50.320;8.054;2023-11-21T13:55:12;15.32;;;7.72;;
35907;SDS011;22003;50.320;8.054;2023-11-21T13:57:41;13.32;;;6.85;;
35907;SDS011;22003;50.320;8.054;2023-11-21T14:00:10;15.95;;;6.72;;
35907;SDS011;22003;50.320;8.054;2023-11-21T14:02:56;16.58;;;7.40;;
35907;SDS011;22003;50.320;8.054;2023-11-21T14:05:25;15.50;;;7.47;;
35907;SDS011;22003;50.320;8.054;2023-11-21T14:07:54;14.57;;;7.13;;
35907;SDS011;22003;50.320;8.054;2023-11-21T14:10:21;14.38;;;7.07;;
35907;SDS011;22003;50.320;8.054;2023-11-21T14:12:49;19.23;;;7.30;;
35907;SDS011;22003;50.320;8.054;2023-11-21T14:15:14;18.33;;;7.80;;
35907;SDS011;22003;50.320;8.054;2023-11-21T14:17:43;17.85;;;7.40;;
35907;SDS011;22003;50.320;8.054;2023-11-21T14:20:09;13.77;;;7.35;;
35907;SDS011;22003;50.320;8.054;2023-11-21T14:22:41;17.05;;;7.45;;
35907;SDS011;22003;50.320;8.054;2023-11-21T14:25:06;15.20;;;7.03;;
35907;SDS011;22003;50.320;8.054;2023-11-21T14:27:32;13.73;;;7.15;;
35907;SDS011;22003;50.320;8.054;2023-11-21T14:29:58;19.60;;;8.07;;
35907;SDS011;22003;50.320;8.054;2023-11-21T14:32:24;16.35;;;7.43;;
35907;SDS011;22003;50.320;8.054;2023-11-21T14:34:51;17.43;;;9.03;;
35907;SDS011;22003;50.320;8.054;2023-11-21T14:37:16;21.10;;;8.82;;
35907;SDS011;22003;50.320;8.054;2023-11-21T14:39:41;15.38;;;8.55;;
35907;SDS011;22003;50.320;8.054;2023-11-21T14:42:10;20.95;;;10.50;;
35907;SDS011;22003;50.320;8.054;2023-11-21T14:44:36;20.73;;;9.02;;
35907;SDS011;22003;50.320;8.054;2023-11-21T14:47:06;21.88;;;9.25;;
35907;SDS011;22003;50.320;8.054;2023-11-21T14:49:39;23.77;;;9.90;;
35907;SDS011;22003;50.320;8.054;2023-11-21T14:52:18;20.55;;;9.90;;